sensor_id;sensor_type;location;lat;lon;timestamp;temperature;humidity
32506;DHT22;18955;51.224;8.482;2023-02-15T00:01:40;3.40;76.90
32506;DHT22;18955;51.224;8.482;2023-02-15T00:04:06;3.40;76.90
32506;DHT22;18955;51.224;8.482;2023-02-15T00:06:34;3.40;76.90
32506;DHT22;18955;51.224;8.482;2023-02-15T00:09:00;3.40;76.90
32506;DHT22;18955;51.224;8.482;2023-02-15T00:11:27;3.40;77.00
32506;DHT22;18955;51.224;8.482;2023-02-15T00:14:06;3.30;77.00
32506;DHT22;18955;51.224;8.482;2023-02-15T00:16:33;3.30;76.90
32506;DHT22;18955;51.224;8.482;2023-02-15T00:18:59;3.30;76.90
32506;DHT22;18955;51.224;8.482;2023-02-15T00:21:29;3.30;76.90
32506;DHT22;18955;51.224;8.482;2023-02-15T00:24:00;3.30;77.00
32506;DHT22;18955;51.224;8.482;2023-02-15T00:26:26;3.30;77.00
32506;DHT22;18955;51.224;8.482;2023-02-15T00:28:53;3.30;77.00
32506;DHT22;18955;51.224;8.482;2023-02-15T00:31:20;3.30;77.00
32506;DHT22;18955;51.224;8.482;2023-02-15T00:33:46;3.20;76.90
32506;DHT22;18955;51.224;8.482;2023-02-15T00:36:13;3.20;76.90
32506;DHT22;18955;51.224;8.482;2023-02-15T00:38:40;3.20;76.90
32506;DHT22;18955;51.224;8.482;2023-02-15T00:41:08;3.20;77.00
32506;DHT22;18955;51.224;8.482;2023-02-15T00:43:35;3.20;76.90
32506;DHT22;18955;51.224;8.482;2023-02-15T00:46:03;3.20;77.00
32506;DHT22;18955;51.224;8.482;2023-02-15T00:48:30;3.20;77.00
32506;DHT22;18955;51.224;8.482;2023-02-15T00:50:58;3.20;77.00
32506;DHT22;18955;51.224;8.482;2023-02-15T00:53:25;3.10;76.90
32506;DHT22;18955;51.224;8.482;2023-02-15T00:55:52;3.10;77.00
32506;DHT22;18955;51.224;8.482;2023-02-15T00:58:18;3.10;76.90
32506;DHT22;18955;51.224;8.482;2023-02-15T01:00:46;3.20;76.90
32506;DHT22;18955;51.224;8.482;2023-02-15T01:03:14;3.10;76.80
32506;DHT22;18955;51.224;8.482;2023-02-15T01:05:41;3.10;76.80
32506;DHT22;18955;51.224;8.482;2023-02-15T01:08:08;3.10;76.80
32506;DHT22;18955;51.224;8.482;2023-02-15T01:10:35;3.10;76.80
32506;DHT22;18955;51.224;8.482;2023-02-15T01:13:02;3.00;76.80
32506;DHT22;18955;51.224;8.482;2023-02-15T01:15:28;3.00;76.80
32506;DHT22;18955;51.224;8.482;2023-02-15T01:17:55;3.10;76.90
32506;DHT22;18955;51.224;8.482;2023-02-15T01:20:24;3.00;76.80
32506;DHT22;18955;51.224;8.482;2023-02-15T01:22:51;3.00;76.90
32506;DHT22;18955;51.224;8.482;2023-02-15T01:25:18;3.10;76.90
32506;DHT22;18955;51.224;8.482;2023-02-15T01:27:45;3.00;76.90
32506;DHT22;18955;51.224;8.482;2023-02-15T01:30:14;3.00;76.90
32506;DHT22;18955;51.224;8.482;2023-02-15T01:32:41;3.00;76.90
32506;DHT22;18955;51.224;8.482;2023-02-15T01:35:08;2.90;76.90
32506;DHT22;18955;51.224;8.482;2023-02-15T01:37:34;2.90;76.90
32506;DHT22;18955;51.224;8.482;2023-02-15T01:40:08;2.90;76.80
32506;DHT22;18955;51.224;8.482;2023-02-15T01:42:34;2.90;76.90
32506;DHT22;18955;51.224;8.482;2023-02-15T01:50:43;2.90;76.80
32506;DHT22;18955;51.224;8.482;2023-02-15T01:53:22;2.90;76.80
32506;DHT22;18955;51.224;8.482;2023-02-15T01:56:02;2.90;76.80
32506;DHT22;18955;51.224;8.482;2023-02-15T01:58:30;2.80;76.80
32506;DHT22;18955;51.224;8.482;2023-02-15T02:01:00;2.80;76.80
32506;DHT22;18955;51.224;8.482;2023-02-15T02:06:13;2.80;76.80
32506;DHT22;18955;51.224;8.482;2023-02-15T02:08:40;2.80;76.80
32506;DHT22;18955;51.224;8.482;2023-02-15T02:11:13;2.80;76.80
32506;DHT22;18955;51.224;8.482;2023-02-15T02:13:43;2.70;76.70
32506;DHT22;18955;51.224;8.482;2023-02-15T02:16:17;2.70;76.70
32506;DHT22;18955;51.224;8.482;2023-02-15T02:29:42;2.70;76.60
32506;DHT22;18955;51.224;8.482;2023-02-15T02:38:04;2.70;76.70
32506;DHT22;18955;51.224;8.482;2023-02-15T02:40:42;2.60;76.70
32506;DHT22;18955;51.224;8.482;2023-02-15T02:43:32;2.60;76.70
32506;DHT22;18955;51.224;8.482;2023-02-15T02:46:20;2.60;76.70
32506;DHT22;18955;51.224;8.482;2023-02-15T02:48:49;2.60;76.60
32506;DHT22;18955;51.224;8.482;2023-02-15T02:51:15;2.60;76.70
32506;DHT22;18955;51.224;8.482;2023-02-15T02:53:51;2.60;76.70
32506;DHT22;18955;51.224;8.482;2023-02-15T02:56:39;2.60;76.70
32506;DHT22;18955;51.224;8.482;2023-02-15T02:59:12;2.60;76.70
32506;DHT22;18955;51.224;8.482;2023-02-15T03:02:06;2.50;76.70
32506;DHT22;18955;51.224;8.482;2023-02-15T03:04:49;2.50;76.70
32506;DHT22;18955;51.224;8.482;2023-02-15T03:07:26;2.60;76.80
32506;DHT22;18955;51.224;8.482;2023-02-15T03:09:58;2.50;76.70
32506;DHT22;18955;51.224;8.482;2023-02-15T03:12:32;2.50;76.70
32506;DHT22;18955;51.224;8.482;2023-02-15T03:15:33;2.50;76.70
32506;DHT22;18955;51.224;8.482;2023-02-15T03:18:22;2.50;76.80
32506;DHT22;18955;51.224;8.482;2023-02-15T03:20:52;2.50;76.70
32506;DHT22;18955;51.224;8.482;2023-02-15T03:23:23;2.50;76.80
32506;DHT22;18955;51.224;8.482;2023-02-15T03:25:57;2.50;76.80
32506;DHT22;18955;51.224;8.482;2023-02-15T03:28:41;2.40;76.70
32506;DHT22;18955;51.224;8.482;2023-02-15T03:31:10;2.30;76.60
32506;DHT22;18955;51.224;8.482;2023-02-15T03:33:42;2.50;76.70
32506;DHT22;18955;51.224;8.482;2023-02-15T03:38:51;2.40;76.70
32506;DHT22;18955;51.224;8.482;2023-02-15T03:41:19;2.40;76.80
32506;DHT22;18955;51.224;8.482;2023-02-15T03:44:04;2.40;76.70
32506;DHT22;18955;51.224;8.482;2023-02-15T03:46:52;2.40;76.70
32506;DHT22;18955;51.224;8.482;2023-02-15T03:49:23;2.30;76.80
32506;DHT22;18955;51.224;8.482;2023-02-15T03:51:53;2.30;76.70
32506;DHT22;18955;51.224;8.482;2023-02-15T03:54:26;2.30;76.70
32506;DHT22;18955;51.224;8.482;2023-02-15T04:00:22;2.30;76.60
32506;DHT22;18955;51.224;8.482;2023-02-15T04:03:28;2.30;76.60
32506;DHT22;18955;51.224;8.482;2023-02-15T04:05:57;2.30;76.60
32506;DHT22;18955;51.224;8.482;2023-02-15T04:08:23;2.40;76.80
32506;DHT22;18955;51.224;8.482;2023-02-15T04:11:10;2.40;76.80
32506;DHT22;18955;51.224;8.482;2023-02-15T04:13:36;2.30;76.70
32506;DHT22;18955;51.224;8.482;2023-02-15T04:16:02;2.30;76.80
32506;DHT22;18955;51.224;8.482;2023-02-15T04:18:38;2.30;76.80
32506;DHT22;18955;51.224;8.482;2023-02-15T04:21:25;2.20;76.70
32506;DHT22;18955;51.224;8.482;2023-02-15T04:24:12;2.30;76.90
32506;DHT22;18955;51.224;8.482;2023-02-15T04:26:57;2.20;76.70
32506;DHT22;18955;51.224;8.482;2023-02-15T04:29:25;2.20;76.70
32506;DHT22;18955;51.224;8.482;2023-02-15T04:31:53;2.20;76.70
32506;DHT22;18955;51.224;8.482;2023-02-15T04:34:19;2.20;76.70
32506;DHT22;18955;51.224;8.482;2023-02-15T04:36:45;2.20;76.70
32506;DHT22;18955;51.224;8.482;2023-02-15T04:39:16;2.20;76.70
32506;DHT22;18955;51.224;8.482;2023-02-15T04:41:44;2.20;76.80
32506;DHT22;18955;51.224;8.482;2023-02-15T04:44:10;2.20;76.70
32506;DHT22;18955;51.224;8.482;2023-02-15T04:46:37;2.20;76.70
32506;DHT22;18955;51.224;8.482;2023-02-15T04:49:03;2.20;76.70
32506;DHT22;18955;51.224;8.482;2023-02-15T04:51:30;2.20;76.80
32506;DHT22;18955;51.224;8.482;2023-02-15T04:53:56;2.20;76.70
32506;DHT22;18955;51.224;8.482;2023-02-15T04:56:22;2.10;76.70
32506;DHT22;18955;51.224;8.482;2023-02-15T04:58:49;2.10;76.70
32506;DHT22;18955;51.224;8.482;2023-02-15T05:01:15;2.10;76.70
32506;DHT22;18955;51.224;8.482;2023-02-15T05:03:41;2.10;76.70
32506;DHT22;18955;51.224;8.482;2023-02-15T05:06:07;2.10;76.70
32506;DHT22;18955;51.224;8.482;2023-02-15T05:08:34;2.10;76.70
32506;DHT22;18955;51.224;8.482;2023-02-15T05:11:00;2.10;76.70
32506;DHT22;18955;51.224;8.482;2023-02-15T05:13:26;2.10;76.70
32506;DHT22;18955;51.224;8.482;2023-02-15T05:15:53;2.10;76.70
32506;DHT22;18955;51.224;8.482;2023-02-15T05:18:20;2.20;76.90
32506;DHT22;18955;51.224;8.482;2023-02-15T05:20:47;2.00;76.60
32506;DHT22;18955;51.224;8.482;2023-02-15T05:23:13;2.10;76.70
32506;DHT22;18955;51.224;8.482;2023-02-15T05:25:39;2.00;76.70
32506;DHT22;18955;51.224;8.482;2023-02-15T05:28:27;2.00;76.70
32506;DHT22;18955;51.224;8.482;2023-02-15T05:31:15;2.00;76.70
32506;DHT22;18955;51.224;8.482;2023-02-15T05:33:43;2.00;76.80
32506;DHT22;18955;51.224;8.482;2023-02-15T05:36:10;2.00;76.80
32506;DHT22;18955;51.224;8.482;2023-02-15T05:38:37;2.00;76.60
32506;DHT22;18955;51.224;8.482;2023-02-15T05:41:04;2.00;77.10
32506;DHT22;18955;51.224;8.482;2023-02-15T05:43:31;2.00;76.60
32506;DHT22;18955;51.224;8.482;2023-02-15T05:45:58;2.00;76.60
32506;DHT22;18955;51.224;8.482;2023-02-15T05:48:25;2.00;76.60
32506;DHT22;18955;51.224;8.482;2023-02-15T05:51:06;1.90;76.60
32506;DHT22;18955;51.224;8.482;2023-02-15T05:53:35;1.90;76.60
32506;DHT22;18955;51.224;8.482;2023-02-15T05:56:02;1.90;76.70
32506;DHT22;18955;51.224;8.482;2023-02-15T05:58:31;1.90;76.70
32506;DHT22;18955;51.224;8.482;2023-02-15T06:00:58;2.00;76.70
32506;DHT22;18955;51.224;8.482;2023-02-15T06:03:24;1.90;76.60
32506;DHT22;18955;51.224;8.482;2023-02-15T06:05:54;1.90;76.70
32506;DHT22;18955;51.224;8.482;2023-02-15T06:08:21;1.90;77.10
32506;DHT22;18955;51.224;8.482;2023-02-15T06:10:47;1.90;76.60
32506;DHT22;18955;51.224;8.482;2023-02-15T06:13:13;1.80;76.60
32506;DHT22;18955;51.224;8.482;2023-02-15T06:15:40;1.80;76.60
32506;DHT22;18955;51.224;8.482;2023-02-15T06:18:06;1.80;77.10
32506;DHT22;18955;51.224;8.482;2023-02-15T06:20:32;1.80;76.60
32506;DHT22;18955;51.224;8.482;2023-02-15T06:22:58;1.80;76.60
32506;DHT22;18955;51.224;8.482;2023-02-15T06:25:25;1.80;76.60
32506;DHT22;18955;51.224;8.482;2023-02-15T06:27:51;1.80;76.60
32506;DHT22;18955;51.224;8.482;2023-02-15T06:30:17;1.90;76.70
32506;DHT22;18955;51.224;8.482;2023-02-15T06:32:43;1.80;76.60
32506;DHT22;18955;51.224;8.482;2023-02-15T06:35:10;1.80;76.60
32506;DHT22;18955;51.224;8.482;2023-02-15T06:37:38;1.70;76.60
32506;DHT22;18955;51.224;8.482;2023-02-15T06:40:04;1.70;76.50
32506;DHT22;18955;51.224;8.482;2023-02-15T06:42:31;1.80;76.60
32506;DHT22;18955;51.224;8.482;2023-02-15T06:44:57;1.70;76.50
32506;DHT22;18955;51.224;8.482;2023-02-15T06:47:24;1.70;76.60
32506;DHT22;18955;51.224;8.482;2023-02-15T06:49:51;1.70;76.90
32506;DHT22;18955;51.224;8.482;2023-02-15T06:52:17;1.70;76.60
32506;DHT22;18955;51.224;8.482;2023-02-15T06:54:43;1.70;77.10
32506;DHT22;18955;51.224;8.482;2023-02-15T06:57:09;1.70;76.60
32506;DHT22;18955;51.224;8.482;2023-02-15T06:59:36;1.80;76.60
32506;DHT22;18955;51.224;8.482;2023-02-15T07:02:02;1.70;76.60
32506;DHT22;18955;51.224;8.482;2023-02-15T07:04:28;1.60;76.60
32506;DHT22;18955;51.224;8.482;2023-02-15T07:06:55;1.60;76.50
32506;DHT22;18955;51.224;8.482;2023-02-15T07:09:22;1.60;76.60
32506;DHT22;18955;51.224;8.482;2023-02-15T07:11:48;1.60;76.60
32506;DHT22;18955;51.224;8.482;2023-02-15T07:14:33;1.60;76.50
32506;DHT22;18955;51.224;8.482;2023-02-15T07:16:59;1.60;76.60
32506;DHT22;18955;51.224;8.482;2023-02-15T07:19:25;1.60;76.60
32506;DHT22;18955;51.224;8.482;2023-02-15T07:21:52;1.60;76.50
32506;DHT22;18955;51.224;8.482;2023-02-15T07:24:18;1.60;76.60
32506;DHT22;18955;51.224;8.482;2023-02-15T07:26:44;1.60;76.60
32506;DHT22;18955;51.224;8.482;2023-02-15T07:29:10;1.60;76.60
32506;DHT22;18955;51.224;8.482;2023-02-15T07:31:37;1.60;76.60
32506;DHT22;18955;51.224;8.482;2023-02-15T07:34:04;1.60;76.50
32506;DHT22;18955;51.224;8.482;2023-02-15T07:36:31;1.60;76.60
32506;DHT22;18955;51.224;8.482;2023-02-15T07:38:57;1.50;76.60
32506;DHT22;18955;51.224;8.482;2023-02-15T07:41:23;1.50;76.60
32506;DHT22;18955;51.224;8.482;2023-02-15T07:43:50;1.50;76.60
32506;DHT22;18955;51.224;8.482;2023-02-15T07:46:16;1.50;76.70
32506;DHT22;18955;51.224;8.482;2023-02-15T07:48:44;1.50;76.70
32506;DHT22;18955;51.224;8.482;2023-02-15T07:51:11;1.50;76.70
32506;DHT22;18955;51.224;8.482;2023-02-15T07:53:39;1.50;76.70
32506;DHT22;18955;51.224;8.482;2023-02-15T07:56:09;1.50;76.70
32506;DHT22;18955;51.224;8.482;2023-02-15T07:58:35;1.40;76.70
32506;DHT22;18955;51.224;8.482;2023-02-15T08:01:29;1.50;76.70
32506;DHT22;18955;51.224;8.482;2023-02-15T08:03:56;1.50;76.70
32506;DHT22;18955;51.224;8.482;2023-02-15T08:06:23;1.50;76.70
32506;DHT22;18955;51.224;8.482;2023-02-15T08:08:50;1.50;76.80
32506;DHT22;18955;51.224;8.482;2023-02-15T08:11:24;1.40;76.70
32506;DHT22;18955;51.224;8.482;2023-02-15T08:14:12;1.50;76.90
32506;DHT22;18955;51.224;8.482;2023-02-15T08:16:47;1.60;77.10
32506;DHT22;18955;51.224;8.482;2023-02-15T08:21:50;1.60;77.10
32506;DHT22;18955;51.224;8.482;2023-02-15T08:24:18;1.60;77.10
32506;DHT22;18955;51.224;8.482;2023-02-15T08:26:46;1.60;77.10
32506;DHT22;18955;51.224;8.482;2023-02-15T08:29:18;1.70;77.20
32506;DHT22;18955;51.224;8.482;2023-02-15T08:31:45;1.70;77.10
32506;DHT22;18955;51.224;8.482;2023-02-15T08:34:15;1.70;77.10
32506;DHT22;18955;51.224;8.482;2023-02-15T08:36:42;1.70;77.00
32506;DHT22;18955;51.224;8.482;2023-02-15T08:39:12;1.70;76.90
32506;DHT22;18955;51.224;8.482;2023-02-15T08:41:41;1.70;77.00
32506;DHT22;18955;51.224;8.482;2023-02-15T08:44:08;1.70;77.00
32506;DHT22;18955;51.224;8.482;2023-02-15T08:46:37;1.70;77.00
32506;DHT22;18955;51.224;8.482;2023-02-15T08:49:04;1.70;77.10
32506;DHT22;18955;51.224;8.482;2023-02-15T08:51:32;1.70;77.20
32506;DHT22;18955;51.224;8.482;2023-02-15T08:54:04;1.60;77.20
32506;DHT22;18955;51.224;8.482;2023-02-15T08:56:36;1.70;77.30
32506;DHT22;18955;51.224;8.482;2023-02-15T08:59:04;1.70;77.40
32506;DHT22;18955;51.224;8.482;2023-02-15T09:01:33;1.70;77.40
32506;DHT22;18955;51.224;8.482;2023-02-15T09:04:05;1.70;77.30
32506;DHT22;18955;51.224;8.482;2023-02-15T09:06:36;1.70;77.30
32506;DHT22;18955;51.224;8.482;2023-02-15T09:09:03;1.80;77.40
32506;DHT22;18955;51.224;8.482;2023-02-15T09:11:34;1.70;77.30
32506;DHT22;18955;51.224;8.482;2023-02-15T09:14:05;1.70;77.30
32506;DHT22;18955;51.224;8.482;2023-02-15T09:16:33;1.60;77.20
32506;DHT22;18955;51.224;8.482;2023-02-15T09:19:00;1.70;77.40
32506;DHT22;18955;51.224;8.482;2023-02-15T09:21:28;1.70;77.30
32506;DHT22;18955;51.224;8.482;2023-02-15T09:23:59;1.80;77.30
32506;DHT22;18955;51.224;8.482;2023-02-15T09:26:28;1.70;77.40
32506;DHT22;18955;51.224;8.482;2023-02-15T09:28:57;1.70;77.40
32506;DHT22;18955;51.224;8.482;2023-02-15T09:31:26;1.80;77.30
32506;DHT22;18955;51.224;8.482;2023-02-15T09:33:53;1.80;77.20
32506;DHT22;18955;51.224;8.482;2023-02-15T09:36:20;1.80;77.30
32506;DHT22;18955;51.224;8.482;2023-02-15T09:38:56;1.80;77.60
32506;DHT22;18955;51.224;8.482;2023-02-15T09:47:42;1.90;78.40
32506;DHT22;18955;51.224;8.482;2023-02-15T09:50:20;1.90;78.50
32506;DHT22;18955;51.224;8.482;2023-02-15T10:06:31;2.20;78.60
32506;DHT22;18955;51.224;8.482;2023-02-15T10:14:34;2.30;78.90
32506;DHT22;18955;51.224;8.482;2023-02-15T10:27:51;2.60;78.80
32506;DHT22;18955;51.224;8.482;2023-02-15T10:30:24;2.80;78.90
32506;DHT22;18955;51.224;8.482;2023-02-15T10:33:04;2.70;79.30
32506;DHT22;18955;51.224;8.482;2023-02-15T10:38:45;2.90;79.10
32506;DHT22;18955;51.224;8.482;2023-02-15T10:41:24;2.90;79.00
32506;DHT22;18955;51.224;8.482;2023-02-15T10:46:42;3.00;78.60
32506;DHT22;18955;51.224;8.482;2023-02-15T11:08:29;3.50;78.40
32506;DHT22;18955;51.224;8.482;2023-02-15T11:11:04;3.50;78.20
32506;DHT22;18955;51.224;8.482;2023-02-15T11:13:38;3.60;78.30
32506;DHT22;18955;51.224;8.482;2023-02-15T11:16:17;3.60;78.40
32506;DHT22;18955;51.224;8.482;2023-02-15T11:18:55;3.70;78.40
32506;DHT22;18955;51.224;8.482;2023-02-15T11:21:36;3.70;78.30
32506;DHT22;18955;51.224;8.482;2023-02-15T11:24:14;3.80;78.50
32506;DHT22;18955;51.224;8.482;2023-02-15T11:29:37;3.90;78.70
32506;DHT22;18955;51.224;8.482;2023-02-15T11:32:31;4.00;78.80
32506;DHT22;18955;51.224;8.482;2023-02-15T11:37:40;4.10;78.80
32506;DHT22;18955;51.224;8.482;2023-02-15T11:42:48;4.20;78.70
32506;DHT22;18955;51.224;8.482;2023-02-15T11:47:48;4.30;78.60
32506;DHT22;18955;51.224;8.482;2023-02-15T11:50:17;4.30;78.70
32506;DHT22;18955;51.224;8.482;2023-02-15T11:52:52;4.40;78.50
32506;DHT22;18955;51.224;8.482;2023-02-15T11:55:23;4.40;78.50
32506;DHT22;18955;51.224;8.482;2023-02-15T11:57:56;4.40;78.10
32506;DHT22;18955;51.224;8.482;2023-02-15T12:00:34;4.60;78.30
32506;DHT22;18955;51.224;8.482;2023-02-15T12:03:07;4.50;78.40
32506;DHT22;18955;51.224;8.482;2023-02-15T12:05:37;4.50;78.40
32506;DHT22;18955;51.224;8.482;2023-02-15T12:10:44;4.50;78.20
32506;DHT22;18955;51.224;8.482;2023-02-15T12:13:17;4.60;78.50
32506;DHT22;18955;51.224;8.482;2023-02-15T12:16:07;4.60;78.50
32506;DHT22;18955;51.224;8.482;2023-02-15T12:18:39;4.60;78.30
32506;DHT22;18955;51.224;8.482;2023-02-15T12:21:11;4.70;78.70
32506;DHT22;18955;51.224;8.482;2023-02-15T12:23:47;4.70;78.60
32506;DHT22;18955;51.224;8.482;2023-02-15T12:26:14;4.70;78.50
32506;DHT22;18955;51.224;8.482;2023-02-15T12:28:50;4.80;78.70
32506;DHT22;18955;51.224;8.482;2023-02-15T12:31:36;4.80;78.80
32506;DHT22;18955;51.224;8.482;2023-02-15T12:34:19;4.80;78.80
32506;DHT22;18955;51.224;8.482;2023-02-15T12:36:56;4.90;78.90
32506;DHT22;18955;51.224;8.482;2023-02-15T12:39:29;5.00;79.00
32506;DHT22;18955;51.224;8.482;2023-02-15T12:44:30;5.00;78.90
32506;DHT22;18955;51.224;8.482;2023-02-15T12:49:28;5.10;78.90
32506;DHT22;18955;51.224;8.482;2023-02-15T12:52:03;5.10;78.80
32506;DHT22;18955;51.224;8.482;2023-02-15T12:54:34;5.20;78.60
32506;DHT22;18955;51.224;8.482;2023-02-15T13:00:00;5.30;78.80
32506;DHT22;18955;51.224;8.482;2023-02-15T13:05:10;5.40;78.80
32506;DHT22;18955;51.224;8.482;2023-02-15T13:07:50;5.50;78.40
32506;DHT22;18955;51.224;8.482;2023-02-15T13:12:52;5.70;78.70
32506;DHT22;18955;51.224;8.482;2023-02-15T13:17:56;5.90;78.40
32506;DHT22;18955;51.224;8.482;2023-02-15T13:20:23;5.90;78.30
32506;DHT22;18955;51.224;8.482;2023-02-15T13:22:52;6.00;78.50
32506;DHT22;18955;51.224;8.482;2023-02-15T13:25:22;6.10;78.40
32506;DHT22;18955;51.224;8.482;2023-02-15T13:27:55;6.10;78.40
32506;DHT22;18955;51.224;8.482;2023-02-15T13:30:24;6.20;78.30
32506;DHT22;18955;51.224;8.482;2023-02-15T13:32:55;6.30;78.10
32506;DHT22;18955;51.224;8.482;2023-02-15T13:35:25;6.40;78.20
32506;DHT22;18955;51.224;8.482;2023-02-15T13:40:52;6.60;78.10
32506;DHT22;18955;51.224;8.482;2023-02-15T13:57:17;6.80;77.80
32506;DHT22;18955;51.224;8.482;2023-02-15T14:08:43;6.80;79.70
32506;DHT22;18955;51.224;8.482;2023-02-15T14:14:50;6.90;79.50
32506;DHT22;18955;51.224;8.482;2023-02-15T14:17:50;6.90;80.80
32506;DHT22;18955;51.224;8.482;2023-02-15T14:25:42;7.00;79.60
32506;DHT22;18955;51.224;8.482;2023-02-15T14:28:27;7.00;79.70
32506;DHT22;18955;51.224;8.482;2023-02-15T14:30:56;7.00;79.60
32506;DHT22;18955;51.224;8.482;2023-02-15T14:33:39;7.00;79.50
32506;DHT22;18955;51.224;8.482;2023-02-15T14:36:13;7.10;79.60
32506;DHT22;18955;51.224;8.482;2023-02-15T14:41:43;7.10;79.70
32506;DHT22;18955;51.224;8.482;2023-02-15T14:49:35;7.20;79.80
32506;DHT22;18955;51.224;8.482;2023-02-15T14:52:09;7.20;79.80
32506;DHT22;18955;51.224;8.482;2023-02-15T14:59:46;7.20;79.80
32506;DHT22;18955;51.224;8.482;2023-02-15T15:02:39;7.30;79.70
32506;DHT22;18955;51.224;8.482;2023-02-15T15:05:34;7.20;80.20
32506;DHT22;18955;51.224;8.482;2023-02-15T15:08:03;7.30;79.70
32506;DHT22;18955;51.224;8.482;2023-02-15T15:15:57;7.30;79.70
32506;DHT22;18955;51.224;8.482;2023-02-15T15:18:46;7.30;79.80
32506;DHT22;18955;51.224;8.482;2023-02-15T15:32:51;7.40;79.60
32506;DHT22;18955;51.224;8.482;2023-02-15T15:44:08;7.40;79.60
32506;DHT22;18955;51.224;8.482;2023-02-15T15:49:15;7.40;79.60
32506;DHT22;18955;51.224;8.482;2023-02-15T15:51:44;7.40;79.40
32506;DHT22;18955;51.224;8.482;2023-02-15T15:54:18;7.40;79.50
32506;DHT22;18955;51.224;8.482;2023-02-15T15:56:59;7.40;79.40
32506;DHT22;18955;51.224;8.482;2023-02-15T15:59:29;7.40;79.40
32506;DHT22;18955;51.224;8.482;2023-02-15T16:01:56;7.40;79.40
32506;DHT22;18955;51.224;8.482;2023-02-15T16:04:31;7.40;79.40
32506;DHT22;18955;51.224;8.482;2023-02-15T16:12:30;7.40;79.40
32506;DHT22;18955;51.224;8.482;2023-02-15T16:14:56;7.40;79.50
32506;DHT22;18955;51.224;8.482;2023-02-15T16:17:28;7.30;79.30
32506;DHT22;18955;51.224;8.482;2023-02-15T16:22:53;7.40;79.10
32506;DHT22;18955;51.224;8.482;2023-02-15T16:28:05;7.30;79.10
32506;DHT22;18955;51.224;8.482;2023-02-15T16:30:33;7.40;79.10
32506;DHT22;18955;51.224;8.482;2023-02-15T16:33:14;7.40;79.30
32506;DHT22;18955;51.224;8.482;2023-02-15T16:35:57;7.30;79.20
32506;DHT22;18955;51.224;8.482;2023-02-15T16:41:27;7.30;79.20
32506;DHT22;18955;51.224;8.482;2023-02-15T16:43:58;7.30;79.30
32506;DHT22;18955;51.224;8.482;2023-02-15T16:46:39;7.30;79.30
32506;DHT22;18955;51.224;8.482;2023-02-15T16:49:27;7.30;79.30
32506;DHT22;18955;51.224;8.482;2023-02-15T16:52:03;7.20;79.40
32506;DHT22;18955;51.224;8.482;2023-02-15T16:54:32;7.30;79.50
32506;DHT22;18955;51.224;8.482;2023-02-15T16:56:59;7.20;79.50
32506;DHT22;18955;51.224;8.482;2023-02-15T16:59:45;7.20;79.50
32506;DHT22;18955;51.224;8.482;2023-02-15T17:02:18;7.20;79.20
32506;DHT22;18955;51.224;8.482;2023-02-15T17:10:38;7.10;79.30
32506;DHT22;18955;51.224;8.482;2023-02-15T17:13:14;7.20;79.40
32506;DHT22;18955;51.224;8.482;2023-02-15T17:16:07;7.10;79.10
32506;DHT22;18955;51.224;8.482;2023-02-15T17:21:00;7.10;79.20
32506;DHT22;18955;51.224;8.482;2023-02-15T17:23:32;7.10;79.20
32506;DHT22;18955;51.224;8.482;2023-02-15T17:26:10;7.00;79.10
32506;DHT22;18955;51.224;8.482;2023-02-15T17:28:37;7.00;79.10
32506;DHT22;18955;51.224;8.482;2023-02-15T17:31:06;7.00;79.20
32506;DHT22;18955;51.224;8.482;2023-02-15T17:36:11;7.00;79.30
32506;DHT22;18955;51.224;8.482;2023-02-15T17:38:41;6.90;79.20
32506;DHT22;18955;51.224;8.482;2023-02-15T17:41:28;6.90;79.20
32506;DHT22;18955;51.224;8.482;2023-02-15T17:43:55;6.90;79.20
32506;DHT22;18955;51.224;8.482;2023-02-15T17:46:22;6.90;79.20
32506;DHT22;18955;51.224;8.482;2023-02-15T17:48:51;6.90;79.10
32506;DHT22;18955;51.224;8.482;2023-02-15T17:51:20;6.90;79.10
32506;DHT22;18955;51.224;8.482;2023-02-15T17:53:47;6.80;79.00
32506;DHT22;18955;51.224;8.482;2023-02-15T17:56:33;6.80;79.00
32506;DHT22;18955;51.224;8.482;2023-02-15T17:58:59;6.80;78.90
32506;DHT22;18955;51.224;8.482;2023-02-15T18:01:25;6.70;78.80
32506;DHT22;18955;51.224;8.482;2023-02-15T18:04:12;6.80;78.80
32506;DHT22;18955;51.224;8.482;2023-02-15T18:06:57;6.70;78.80
32506;DHT22;18955;51.224;8.482;2023-02-15T18:09:42;6.70;78.70
32506;DHT22;18955;51.224;8.482;2023-02-15T18:14:56;6.60;78.40
32506;DHT22;18955;51.224;8.482;2023-02-15T18:19:52;6.60;78.30
32506;DHT22;18955;51.224;8.482;2023-02-15T18:22:19;6.60;78.20
32506;DHT22;18955;51.224;8.482;2023-02-15T18:24:47;6.60;78.30
32506;DHT22;18955;51.224;8.482;2023-02-15T18:27:14;6.50;78.20
32506;DHT22;18955;51.224;8.482;2023-02-15T18:29:41;6.50;78.10
32506;DHT22;18955;51.224;8.482;2023-02-15T18:32:12;6.50;78.10
32506;DHT22;18955;51.224;8.482;2023-02-15T18:34:41;6.40;78.00
32506;DHT22;18955;51.224;8.482;2023-02-15T18:37:17;6.40;78.00
32506;DHT22;18955;51.224;8.482;2023-02-15T18:39:49;6.40;78.00
32506;DHT22;18955;51.224;8.482;2023-02-15T18:44:45;6.30;77.80
32506;DHT22;18955;51.224;8.482;2023-02-15T18:47:11;6.30;77.90
32506;DHT22;18955;51.224;8.482;2023-02-15T18:49:38;6.30;77.80
32506;DHT22;18955;51.224;8.482;2023-02-15T18:52:04;6.30;78.10
32506;DHT22;18955;51.224;8.482;2023-02-15T18:54:31;6.20;77.60
32506;DHT22;18955;51.224;8.482;2023-02-15T18:56:59;6.20;77.70
32506;DHT22;18955;51.224;8.482;2023-02-15T18:59:27;6.20;77.60
32506;DHT22;18955;51.224;8.482;2023-02-15T19:01:56;6.20;77.70
32506;DHT22;18955;51.224;8.482;2023-02-15T19:04:23;6.20;77.60
32506;DHT22;18955;51.224;8.482;2023-02-15T19:06:49;6.10;77.60
32506;DHT22;18955;51.224;8.482;2023-02-15T19:09:18;6.10;77.50
32506;DHT22;18955;51.224;8.482;2023-02-15T19:11:49;6.10;77.50
32506;DHT22;18955;51.224;8.482;2023-02-15T19:14:29;6.10;77.40
32506;DHT22;18955;51.224;8.482;2023-02-15T19:16:58;6.10;77.30
32506;DHT22;18955;51.224;8.482;2023-02-15T19:19:26;6.00;77.30
32506;DHT22;18955;51.224;8.482;2023-02-15T19:21:53;6.00;77.30
32506;DHT22;18955;51.224;8.482;2023-02-15T19:24:22;6.00;77.30
32506;DHT22;18955;51.224;8.482;2023-02-15T19:26:50;5.90;77.30
32506;DHT22;18955;51.224;8.482;2023-02-15T19:29:20;5.90;77.20
32506;DHT22;18955;51.224;8.482;2023-02-15T19:31:48;5.90;77.20
32506;DHT22;18955;51.224;8.482;2023-02-15T19:34:17;5.90;77.20
32506;DHT22;18955;51.224;8.482;2023-02-15T19:36:45;5.80;77.10
32506;DHT22;18955;51.224;8.482;2023-02-15T19:39:36;5.80;77.20
32506;DHT22;18955;51.224;8.482;2023-02-15T19:42:03;5.80;77.20
32506;DHT22;18955;51.224;8.482;2023-02-15T19:44:30;5.70;77.10
32506;DHT22;18955;51.224;8.482;2023-02-15T19:46:56;5.70;77.10
32506;DHT22;18955;51.224;8.482;2023-02-15T19:49:22;5.70;77.10
32506;DHT22;18955;51.224;8.482;2023-02-15T19:51:49;5.70;77.10
32506;DHT22;18955;51.224;8.482;2023-02-15T19:54:31;5.70;77.10
32506;DHT22;18955;51.224;8.482;2023-02-15T19:56:58;5.60;77.20
32506;DHT22;18955;51.224;8.482;2023-02-15T19:59:27;5.60;76.90
32506;DHT22;18955;51.224;8.482;2023-02-15T20:01:54;5.60;77.00
32506;DHT22;18955;51.224;8.482;2023-02-15T20:04:21;5.60;77.00